sensor_id;sensor_type;location;lat;lon;timestamp;P1;durP1;ratioP1;P2;durP2;ratioP2
33987;SDS011;37428;53.580;-1.666;2022-12-29T00:01:33;13.38;;;1.58;;
33987;SDS011;37428;53.580;-1.666;2022-12-29T00:04:36;4.32;;;1.08;;
33987;SDS011;37428;53.580;-1.666;2022-12-29T00:07:38;15.10;;;2.50;;
33987;SDS011;37428;53.580;-1.666;2022-12-29T00:10:41;14.13;;;2.17;;
33987;SDS011;37428;53.580;-1.666;2022-12-29T00:13:43;8.38;;;1.80;;
33987;SDS011;37428;53.580;-1.666;2022-12-29T00:17:04;13.63;;;2.47;;
33987;SDS011;37428;53.580;-1.666;2022-12-29T00:20:08;8.23;;;1.33;;
33987;SDS011;37428;53.580;-1.666;2022-12-29T00:23:27;7.10;;;1.65;;
33987;SDS011;37428;53.580;-1.666;2022-12-29T00:27:09;15.43;;;2.47;;
33987;SDS011;37428;53.580;-1.666;2022-12-29T00:30:30;11.20;;;2.25;;
33987;SDS011;37428;53.580;-1.666;2022-12-29T00:33:51;9.32;;;2.22;;
33987;SDS011;37428;53.580;-1.666;2022-12-29T00:37:20;8.48;;;1.57;;
33987;SDS011;37428;53.580;-1.666;2022-12-29T00:40:42;6.10;;;1.15;;
33987;SDS011;37428;53.580;-1.666;2022-12-29T00:43:58;7.22;;;1.35;;
33987;SDS011;37428;53.580;-1.666;2022-12-29T00:47:06;14.25;;;2.72;;
33987;SDS011;37428;53.580;-1.666;2022-12-29T00:50:09;13.55;;;2.28;;
33987;SDS011;37428;53.580;-1.666;2022-12-29T00:53:11;12.82;;;1.45;;
33987;SDS011;37428;53.580;-1.666;2022-12-29T00:56:13;12.70;;;2.17;;
33987;SDS011;37428;53.580;-1.666;2022-12-29T00:59:29;7.18;;;1.52;;
33987;SDS011;37428;53.580;-1.666;2022-12-29T01:02:42;6.78;;;1.27;;
33987;SDS011;37428;53.580;-1.666;2022-12-29T01:05:53;13.80;;;2.00;;
33987;SDS011;37428;53.580;-1.666;2022-12-29T01:08:56;8.60;;;2.28;;
33987;SDS011;37428;53.580;-1.666;2022-12-29T01:12:21;6.78;;;1.05;;
33987;SDS011;37428;53.580;-1.666;2022-12-29T01:15:37;7.85;;;1.65;;
33987;SDS011;37428;53.580;-1.666;2022-12-29T01:18:41;3.60;;;1.17;;
33987;SDS011;37428;53.580;-1.666;2022-12-29T01:21:44;4.13;;;0.43;;
33987;SDS011;37428;53.580;-1.666;2022-12-29T01:24:47;1.15;;;0.20;;
33987;SDS011;37428;53.580;-1.666;2022-12-29T01:27:50;1.85;;;0.30;;
33987;SDS011;37428;53.580;-1.666;2022-12-29T01:30:52;2.08;;;0.30;;
33987;SDS011;37428;53.580;-1.666;2022-12-29T01:33:54;0.43;;;0.13;;
33987;SDS011;37428;53.580;-1.666;2022-12-29T01:40:00;0.43;;;0.10;;
33987;SDS011;37428;53.580;-1.666;2022-12-29T01:43:02;1.10;;;0.30;;
33987;SDS011;37428;53.580;-1.666;2022-12-29T01:46:06;0.93;;;0.10;;
33987;SDS011;37428;53.580;-1.666;2022-12-29T01:49:18;4.13;;;0.40;;
33987;SDS011;37428;53.580;-1.666;2022-12-29T01:52:26;1.20;;;0.13;;
33987;SDS011;37428;53.580;-1.666;2022-12-29T01:55:32;1.85;;;0.50;;
33987;SDS011;37428;53.580;-1.666;2022-12-29T01:58:39;1.38;;;0.40;;
33987;SDS011;37428;53.580;-1.666;2022-12-29T02:01:46;0.50;;;0.40;;
33987;SDS011;37428;53.580;-1.666;2022-12-29T02:07:53;0.25;;;0.03;;
33987;SDS011;37428;53.580;-1.666;2022-12-29T02:10:56;0.28;;;0.10;;
33987;SDS011;37428;53.580;-1.666;2022-12-29T02:13:59;1.88;;;0.30;;
33987;SDS011;37428;53.580;-1.666;2022-12-29T02:17:03;2.00;;;0.38;;
33987;SDS011;37428;53.580;-1.666;2022-12-29T02:31:01;0.85;;;0.20;;
33987;SDS011;37428;53.580;-1.666;2022-12-29T02:34:20;1.30;;;0.30;;
33987;SDS011;37428;53.580;-1.666;2022-12-29T02:37:29;0.70;;;0.20;;
33987;SDS011;37428;53.580;-1.666;2022-12-29T02:40:37;0.32;;;0.10;;
33987;SDS011;37428;53.580;-1.666;2022-12-29T02:43:46;1.42;;;0.30;;
33987;SDS011;37428;53.580;-1.666;2022-12-29T02:46:53;4.50;;;0.50;;
33987;SDS011;37428;53.580;-1.666;2022-12-29T02:50:01;1.52;;;0.68;;
33987;SDS011;37428;53.580;-1.666;2022-12-29T02:53:09;2.45;;;0.40;;
33987;SDS011;37428;53.580;-1.666;2022-12-29T02:56:14;2.28;;;0.50;;
33987;SDS011;37428;53.580;-1.666;2022-12-29T02:59:15;1.27;;;0.38;;
33987;SDS011;37428;53.580;-1.666;2022-12-29T03:02:24;1.95;;;0.30;;
33987;SDS011;37428;53.580;-1.666;2022-12-29T03:05:42;2.72;;;1.30;;
33987;SDS011;37428;53.580;-1.666;2022-12-29T03:09:03;3.47;;;0.68;;
33987;SDS011;37428;53.580;-1.666;2022-12-29T03:12:29;2.38;;;0.57;;
33987;SDS011;37428;53.580;-1.666;2022-12-29T03:15:53;4.65;;;0.45;;
33987;SDS011;37428;53.580;-1.666;2022-12-29T03:19:06;2.90;;;0.40;;
33987;SDS011;37428;53.580;-1.666;2022-12-29T03:22:16;1.48;;;0.60;;
33987;SDS011;37428;53.580;-1.666;2022-12-29T03:25:31;27.52;;;2.90;;
33987;SDS011;37428;53.580;-1.666;2022-12-29T03:28:37;3.63;;;0.60;;
33987;SDS011;37428;53.580;-1.666;2022-12-29T03:31:42;0.70;;;0.45;;
33987;SDS011;37428;53.580;-1.666;2022-12-29T03:34:47;1.27;;;0.40;;
33987;SDS011;37428;53.580;-1.666;2022-12-29T03:37:57;0.70;;;0.20;;
33987;SDS011;37428;53.580;-1.666;2022-12-29T03:41:03;0.82;;;0.20;;
33987;SDS011;37428;53.580;-1.666;2022-12-29T03:44:08;2.33;;;0.30;;
33987;SDS011;37428;53.580;-1.666;2022-12-29T03:47:11;0.95;;;0.25;;
33987;SDS011;37428;53.580;-1.666;2022-12-29T03:50:16;2.78;;;0.30;;
33987;SDS011;37428;53.580;-1.666;2022-12-29T03:53:18;2.70;;;0.50;;
33987;SDS011;37428;53.580;-1.666;2022-12-29T03:56:20;3.17;;;0.50;;
33987;SDS011;37428;53.580;-1.666;2022-12-29T03:59:22;0.93;;;0.70;;
33987;SDS011;37428;53.580;-1.666;2022-12-29T04:02:24;3.22;;;0.90;;
33987;SDS011;37428;53.580;-1.666;2022-12-29T04:05:28;3.30;;;0.80;;
33987;SDS011;37428;53.580;-1.666;2022-12-29T04:08:31;5.72;;;1.50;;
33987;SDS011;37428;53.580;-1.666;2022-12-29T04:11:33;1.98;;;1.08;;
33987;SDS011;37428;53.580;-1.666;2022-12-29T04:14:35;7.22;;;1.85;;
33987;SDS011;37428;53.580;-1.666;2022-12-29T04:17:37;2.53;;;1.13;;
33987;SDS011;37428;53.580;-1.666;2022-12-29T04:20:41;7.43;;;1.40;;
33987;SDS011;37428;53.580;-1.666;2022-12-29T04:24:02;6.65;;;1.20;;
33987;SDS011;37428;53.580;-1.666;2022-12-29T04:27:06;9.70;;;1.60;;
33987;SDS011;37428;53.580;-1.666;2022-12-29T04:30:09;2.03;;;1.45;;
33987;SDS011;37428;53.580;-1.666;2022-12-29T04:33:12;2.70;;;0.50;;
33987;SDS011;37428;53.580;-1.666;2022-12-29T04:39:18;3.22;;;0.55;;
33987;SDS011;37428;53.580;-1.666;2022-12-29T04:42:20;1.45;;;0.40;;
33987;SDS011;37428;53.580;-1.666;2022-12-29T04:45:22;3.25;;;0.95;;
33987;SDS011;37428;53.580;-1.666;2022-12-29T04:48:24;5.65;;;1.35;;
33987;SDS011;37428;53.580;-1.666;2022-12-29T04:51:27;5.03;;;1.58;;
33987;SDS011;37428;53.580;-1.666;2022-12-29T04:54:29;7.43;;;1.27;;
33987;SDS011;37428;53.580;-1.666;2022-12-29T04:57:31;9.02;;;2.08;;
33987;SDS011;37428;53.580;-1.666;2022-12-29T05:00:34;14.35;;;1.73;;
33987;SDS011;37428;53.580;-1.666;2022-12-29T05:03:36;4.68;;;1.30;;
33987;SDS011;37428;53.580;-1.666;2022-12-29T05:06:39;6.28;;;1.00;;
33987;SDS011;37428;53.580;-1.666;2022-12-29T05:09:41;6.47;;;2.28;;
33987;SDS011;37428;53.580;-1.666;2022-12-29T05:12:43;7.97;;;1.30;;
33987;SDS011;37428;53.580;-1.666;2022-12-29T05:15:47;10.05;;;2.63;;
33987;SDS011;37428;53.580;-1.666;2022-12-29T05:18:50;7.10;;;1.20;;
33987;SDS011;37428;53.580;-1.666;2022-12-29T05:21:54;8.63;;;1.30;;
33987;SDS011;37428;53.580;-1.666;2022-12-29T05:24:56;7.60;;;1.40;;
33987;SDS011;37428;53.580;-1.666;2022-12-29T05:27:58;6.68;;;1.10;;
33987;SDS011;37428;53.580;-1.666;2022-12-29T05:31:00;6.45;;;1.60;;
33987;SDS011;37428;53.580;-1.666;2022-12-29T05:34:02;24.05;;;1.77;;
33987;SDS011;37428;53.580;-1.666;2022-12-29T05:37:06;8.10;;;1.33;;
33987;SDS011;37428;53.580;-1.666;2022-12-29T05:40:08;7.38;;;1.40;;
33987;SDS011;37428;53.580;-1.666;2022-12-29T05:43:10;4.32;;;1.00;;
33987;SDS011;37428;53.580;-1.666;2022-12-29T05:46:12;9.73;;;1.48;;
33987;SDS011;37428;53.580;-1.666;2022-12-29T05:49:15;9.25;;;1.35;;
33987;SDS011;37428;53.580;-1.666;2022-12-29T05:55:20;7.57;;;1.08;;
33987;SDS011;37428;53.580;-1.666;2022-12-29T05:58:22;6.05;;;0.90;;
33987;SDS011;37428;53.580;-1.666;2022-12-29T06:01:24;6.47;;;0.98;;
33987;SDS011;37428;53.580;-1.666;2022-12-29T06:04:27;11.13;;;1.25;;
33987;SDS011;37428;53.580;-1.666;2022-12-29T06:07:30;4.60;;;0.70;;
33987;SDS011;37428;53.580;-1.666;2022-12-29T06:10:32;5.72;;;1.30;;
33987;SDS011;37428;53.580;-1.666;2022-12-29T06:13:34;8.68;;;1.42;;
33987;SDS011;37428;53.580;-1.666;2022-12-29T06:16:36;12.68;;;1.98;;
33987;SDS011;37428;53.580;-1.666;2022-12-29T06:19:38;7.80;;;2.08;;
33987;SDS011;37428;53.580;-1.666;2022-12-29T06:22:42;3.92;;;0.88;;
33987;SDS011;37428;53.580;-1.666;2022-12-29T06:25:46;8.63;;;1.45;;
33987;SDS011;37428;53.580;-1.666;2022-12-29T06:28:49;4.53;;;0.93;;
33987;SDS011;37428;53.580;-1.666;2022-12-29T06:31:51;4.35;;;0.90;;
33987;SDS011;37428;53.580;-1.666;2022-12-29T06:34:56;7.22;;;1.02;;
33987;SDS011;37428;53.580;-1.666;2022-12-29T06:37:59;3.17;;;0.90;;
33987;SDS011;37428;53.580;-1.666;2022-12-29T06:41:02;2.72;;;0.70;;
33987;SDS011;37428;53.580;-1.666;2022-12-29T06:44:04;7.05;;;1.58;;
33987;SDS011;37428;53.580;-1.666;2022-12-29T06:47:06;3.60;;;0.55;;
33987;SDS011;37428;53.580;-1.666;2022-12-29T06:50:08;3.08;;;0.60;;
33987;SDS011;37428;53.580;-1.666;2022-12-29T06:53:12;6.40;;;0.90;;
33987;SDS011;37428;53.580;-1.666;2022-12-29T06:56:14;4.07;;;0.75;;
33987;SDS011;37428;53.580;-1.666;2022-12-29T06:59:16;1.98;;;0.90;;
33987;SDS011;37428;53.580;-1.666;2022-12-29T07:02:18;2.28;;;1.00;;
33987;SDS011;37428;53.580;-1.666;2022-12-29T07:08:26;4.97;;;1.23;;
33987;SDS011;37428;53.580;-1.666;2022-12-29T07:11:28;6.05;;;1.00;;
33987;SDS011;37428;53.580;-1.666;2022-12-29T07:14:30;1.70;;;1.00;;
33987;SDS011;37428;53.580;-1.666;2022-12-29T07:17:32;5.60;;;1.13;;
33987;SDS011;37428;53.580;-1.666;2022-12-29T07:20:35;4.35;;;1.40;;
33987;SDS011;37428;53.580;-1.666;2022-12-29T07:23:38;2.35;;;1.30;;
33987;SDS011;37428;53.580;-1.666;2022-12-29T07:26:41;4.10;;;2.13;;
33987;SDS011;37428;53.580;-1.666;2022-12-29T07:29:43;2.38;;;1.83;;
33987;SDS011;37428;53.580;-1.666;2022-12-29T07:32:45;1.67;;;1.00;;
33987;SDS011;37428;53.580;-1.666;2022-12-29T07:35:47;0.95;;;0.90;;
33987;SDS011;37428;53.580;-1.666;2022-12-29T07:38:50;2.30;;;1.40;;
33987;SDS011;37428;53.580;-1.666;2022-12-29T07:41:52;3.15;;;1.02;;
33987;SDS011;37428;53.580;-1.666;2022-12-29T07:44:54;1.10;;;0.65;;
33987;SDS011;37428;53.580;-1.666;2022-12-29T07:47:57;2.70;;;1.00;;
33987;SDS011;37428;53.580;-1.666;2022-12-29T07:50:59;7.32;;;0.75;;
33987;SDS011;37428;53.580;-1.666;2022-12-29T07:54:02;4.43;;;0.50;;
33987;SDS011;37428;53.580;-1.666;2022-12-29T07:57:05;1.80;;;0.77;;
33987;SDS011;37428;53.580;-1.666;2022-12-29T08:00:08;3.22;;;1.75;;
33987;SDS011;37428;53.580;-1.666;2022-12-29T08:03:11;2.70;;;0.70;;
33987;SDS011;37428;53.580;-1.666;2022-12-29T08:06:13;1.92;;;0.50;;
33987;SDS011;37428;53.580;-1.666;2022-12-29T08:09:16;6.32;;;1.80;;
33987;SDS011;37428;53.580;-1.666;2022-12-29T08:12:19;2.47;;;0.68;;
33987;SDS011;37428;53.580;-1.666;2022-12-29T08:15:21;2.40;;;0.55;;
33987;SDS011;37428;53.580;-1.666;2022-12-29T08:21:26;4.00;;;0.80;;
33987;SDS011;37428;53.580;-1.666;2022-12-29T08:24:30;5.63;;;0.98;;
33987;SDS011;37428;53.580;-1.666;2022-12-29T08:27:32;1.58;;;0.52;;
33987;SDS011;37428;53.580;-1.666;2022-12-29T08:30:35;3.42;;;1.67;;
33987;SDS011;37428;53.580;-1.666;2022-12-29T08:33:37;5.75;;;0.98;;
33987;SDS011;37428;53.580;-1.666;2022-12-29T08:36:39;7.63;;;0.70;;
33987;SDS011;37428;53.580;-1.666;2022-12-29T08:39:43;3.97;;;1.08;;
33987;SDS011;37428;53.580;-1.666;2022-12-29T08:42:45;5.07;;;0.88;;
33987;SDS011;37428;53.580;-1.666;2022-12-29T08:45:47;6.78;;;0.80;;
33987;SDS011;37428;53.580;-1.666;2022-12-29T08:48:49;9.82;;;1.10;;
33987;SDS011;37428;53.580;-1.666;2022-12-29T08:51:51;7.55;;;1.77;;
33987;SDS011;37428;53.580;-1.666;2022-12-29T08:54:54;6.75;;;0.95;;
33987;SDS011;37428;53.580;-1.666;2022-12-29T08:57:57;6.47;;;1.20;;
33987;SDS011;37428;53.580;-1.666;2022-12-29T09:00:59;5.18;;;1.48;;
33987;SDS011;37428;53.580;-1.666;2022-12-29T09:04:01;7.97;;;0.82;;
33987;SDS011;37428;53.580;-1.666;2022-12-29T09:07:03;6.60;;;1.02;;
33987;SDS011;37428;53.580;-1.666;2022-12-29T09:10:08;4.22;;;0.93;;
33987;SDS011;37428;53.580;-1.666;2022-12-29T09:13:10;4.63;;;1.70;;
33987;SDS011;37428;53.580;-1.666;2022-12-29T09:16:12;6.43;;;1.90;;
33987;SDS011;37428;53.580;-1.666;2022-12-29T09:19:15;6.70;;;1.42;;
33987;SDS011;37428;53.580;-1.666;2022-12-29T09:22:18;6.10;;;2.10;;
33987;SDS011;37428;53.580;-1.666;2022-12-29T09:25:22;4.30;;;1.90;;
33987;SDS011;37428;53.580;-1.666;2022-12-29T09:28:24;3.92;;;0.98;;
33987;SDS011;37428;53.580;-1.666;2022-12-29T09:31:29;5.35;;;1.73;;
33987;SDS011;37428;53.580;-1.666;2022-12-29T09:34:31;8.88;;;2.17;;
33987;SDS011;37428;53.580;-1.666;2022-12-29T09:40:36;3.92;;;1.95;;
33987;SDS011;37428;53.580;-1.666;2022-12-29T09:43:43;22.60;;;4.82;;
33987;SDS011;37428;53.580;-1.666;2022-12-29T09:46:53;8.57;;;2.25;;
33987;SDS011;37428;53.580;-1.666;2022-12-29T09:49:58;12.52;;;2.47;;
33987;SDS011;37428;53.580;-1.666;2022-12-29T09:53:05;7.63;;;2.60;;
33987;SDS011;37428;53.580;-1.666;2022-12-29T09:56:16;9.38;;;2.90;;
33987;SDS011;37428;53.580;-1.666;2022-12-29T09:59:22;6.47;;;2.63;;
33987;SDS011;37428;53.580;-1.666;2022-12-29T10:02:32;8.27;;;2.47;;
33987;SDS011;37428;53.580;-1.666;2022-12-29T10:05:41;12.13;;;2.92;;
33987;SDS011;37428;53.580;-1.666;2022-12-29T10:08:50;11.95;;;10.85;;
33987;SDS011;37428;53.580;-1.666;2022-12-29T10:12:03;14.40;;;13.00;;
33987;SDS011;37428;53.580;-1.666;2022-12-29T10:15:24;11.98;;;10.43;;
33987;SDS011;37428;53.580;-1.666;2022-12-29T10:22:15;19.70;;;11.70;;
33987;SDS011;37428;53.580;-1.666;2022-12-29T10:25:25;11.98;;;8.40;;
33987;SDS011;37428;53.580;-1.666;2022-12-29T10:28:37;17.55;;;9.60;;
33987;SDS011;37428;53.580;-1.666;2022-12-29T10:31:44;15.82;;;7.40;;
33987;SDS011;37428;53.580;-1.666;2022-12-29T10:34:49;21.85;;;6.10;;
33987;SDS011;37428;53.580;-1.666;2022-12-29T10:37:56;16.38;;;5.72;;
33987;SDS011;37428;53.580;-1.666;2022-12-29T10:41:04;29.13;;;7.95;;
33987;SDS011;37428;53.580;-1.666;2022-12-29T10:44:13;14.82;;;5.15;;
33987;SDS011;37428;53.580;-1.666;2022-12-29T10:47:18;17.85;;;7.32;;
33987;SDS011;37428;53.580;-1.666;2022-12-29T10:50:23;15.85;;;5.50;;
33987;SDS011;37428;53.580;-1.666;2022-12-29T10:53:27;18.30;;;5.57;;
33987;SDS011;37428;53.580;-1.666;2022-12-29T10:56:35;17.52;;;5.38;;
33987;SDS011;37428;53.580;-1.666;2022-12-29T10:59:42;18.52;;;5.38;;
33987;SDS011;37428;53.580;-1.666;2022-12-29T11:02:49;7.88;;;3.65;;
33987;SDS011;37428;53.580;-1.666;2022-12-29T11:06:31;7.35;;;3.40;;
33987;SDS011;37428;53.580;-1.666;2022-12-29T11:09:27;15.95;;;3.75;;
33987;SDS011;37428;53.580;-1.666;2022-12-29T11:12:40;6.20;;;1.83;;
33987;SDS011;37428;53.580;-1.666;2022-12-29T11:15:58;12.32;;;2.38;;
33987;SDS011;37428;53.580;-1.666;2022-12-29T11:19:03;7.72;;;2.00;;
33987;SDS011;37428;53.580;-1.666;2022-12-29T11:25:13;9.60;;;1.85;;
33987;SDS011;37428;53.580;-1.666;2022-12-29T11:28:16;9.45;;;1.98;;
33987;SDS011;37428;53.580;-1.666;2022-12-29T11:34:23;11.32;;;2.13;;
33987;SDS011;37428;53.580;-1.666;2022-12-29T11:37:31;7.70;;;2.70;;
33987;SDS011;37428;53.580;-1.666;2022-12-29T11:40:39;11.65;;;1.67;;
33987;SDS011;37428;53.580;-1.666;2022-12-29T11:43:42;9.18;;;2.33;;
33987;SDS011;37428;53.580;-1.666;2022-12-29T11:46:49;23.27;;;3.95;;
33987;SDS011;37428;53.580;-1.666;2022-12-29T11:49:53;13.80;;;1.67;;
33987;SDS011;37428;53.580;-1.666;2022-12-29T11:52:58;12.23;;;1.75;;
33987;SDS011;37428;53.580;-1.666;2022-12-29T11:56:04;11.48;;;2.08;;
33987;SDS011;37428;53.580;-1.666;2022-12-29T12:02:41;11.32;;;1.92;;
33987;SDS011;37428;53.580;-1.666;2022-12-29T12:05:55;9.77;;;2.08;;
33987;SDS011;37428;53.580;-1.666;2022-12-29T12:09:00;6.35;;;2.13;;
33987;SDS011;37428;53.580;-1.666;2022-12-29T12:12:07;9.57;;;2.67;;
33987;SDS011;37428;53.580;-1.666;2022-12-29T12:15:21;9.57;;;2.38;;
33987;SDS011;37428;53.580;-1.666;2022-12-29T12:21:54;9.93;;;1.85;;
33987;SDS011;37428;53.580;-1.666;2022-12-29T12:25:03;10.93;;;2.22;;
33987;SDS011;37428;53.580;-1.666;2022-12-29T12:28:13;6.18;;;1.30;;
33987;SDS011;37428;53.580;-1.666;2022-12-29T12:31:27;5.40;;;1.27;;
33987;SDS011;37428;53.580;-1.666;2022-12-29T12:34:42;10.95;;;1.75;;
33987;SDS011;37428;53.580;-1.666;2022-12-29T12:37:55;10.38;;;1.58;;
33987;SDS011;37428;53.580;-1.666;2022-12-29T12:41:09;4.65;;;1.73;;
33987;SDS011;37428;53.580;-1.666;2022-12-29T12:44:17;7.95;;;1.45;;
33987;SDS011;37428;53.580;-1.666;2022-12-29T12:47:35;9.32;;;2.45;;
33987;SDS011;37428;53.580;-1.666;2022-12-29T12:50:51;8.70;;;2.50;;
33987;SDS011;37428;53.580;-1.666;2022-12-29T12:54:03;11.98;;;2.55;;
33987;SDS011;37428;53.580;-1.666;2022-12-29T12:57:16;10.32;;;2.28;;
33987;SDS011;37428;53.580;-1.666;2022-12-29T13:00:25;11.05;;;3.08;;
33987;SDS011;37428;53.580;-1.666;2022-12-29T13:03:31;13.85;;;3.45;;
33987;SDS011;37428;53.580;-1.666;2022-12-29T13:06:49;18.83;;;4.20;;
33987;SDS011;37428;53.580;-1.666;2022-12-29T13:10:08;7.30;;;1.70;;
33987;SDS011;37428;53.580;-1.666;2022-12-29T13:16:48;13.00;;;2.95;;
33987;SDS011;37428;53.580;-1.666;2022-12-29T13:19:56;13.88;;;3.00;;
33987;SDS011;37428;53.580;-1.666;2022-12-29T13:23:13;13.85;;;4.55;;
33987;SDS011;37428;53.580;-1.666;2022-12-29T13:26:21;17.00;;;3.97;;
33987;SDS011;37428;53.580;-1.666;2022-12-29T13:29:31;12.23;;;3.03;;
33987;SDS011;37428;53.580;-1.666;2022-12-29T13:32:41;13.32;;;2.50;;
33987;SDS011;37428;53.580;-1.666;2022-12-29T13:35:54;6.60;;;2.17;;
33987;SDS011;37428;53.580;-1.666;2022-12-29T13:39:04;8.30;;;1.65;;
33987;SDS011;37428;53.580;-1.666;2022-12-29T13:42:10;11.65;;;2.55;;
33987;SDS011;37428;53.580;-1.666;2022-12-29T13:45:14;10.57;;;1.63;;
33987;SDS011;37428;53.580;-1.666;2022-12-29T13:48:20;8.55;;;1.73;;
33987;SDS011;37428;53.580;-1.666;2022-12-29T13:51:28;12.30;;;1.70;;
33987;SDS011;37428;53.580;-1.666;2022-12-29T13:54:37;10.88;;;1.02;;
33987;SDS011;37428;53.580;-1.666;2022-12-29T14:00:52;8.35;;;1.17;;
33987;SDS011;37428;53.580;-1.666;2022-12-29T14:03:59;8.27;;;2.08;;
33987;SDS011;37428;53.580;-1.666;2022-12-29T14:07:12;12.55;;;1.48;;
33987;SDS011;37428;53.580;-1.666;2022-12-29T14:10:27;7.15;;;1.35;;
33987;SDS011;37428;53.580;-1.666;2022-12-29T14:13:33;9.82;;;1.77;;
33987;SDS011;37428;53.580;-1.666;2022-12-29T14:16:40;6.57;;;1.55;;
33987;SDS011;37428;53.580;-1.666;2022-12-29T14:19:44;6.72;;;2.33;;
33987;SDS011;37428;53.580;-1.666;2022-12-29T14:22:58;10.45;;;1.38;;
33987;SDS011;37428;53.580;-1.666;2022-12-29T14:26:16;6.82;;;1.67;;
33987;SDS011;37428;53.580;-1.666;2022-12-29T14:29:42;12.68;;;2.83;;
33987;SDS011;37428;53.580;-1.666;2022-12-29T14:39:36;5.20;;;1.47;;
33987;SDS011;37428;53.580;-1.666;2022-12-29T14:42:41;10.68;;;2.03;;
33987;SDS011;37428;53.580;-1.666;2022-12-29T14:45:43;5.15;;;1.52;;
33987;SDS011;37428;53.580;-1.666;2022-12-29T14:48:56;12.02;;;3.00;;
33987;SDS011;37428;53.580;-1.666;2022-12-29T14:52:04;9.15;;;3.60;;
33987;SDS011;37428;53.580;-1.666;2022-12-29T14:55:30;11.38;;;2.88;;
33987;SDS011;37428;53.580;-1.666;2022-12-29T14:58:42;7.53;;;1.95;;
33987;SDS011;37428;53.580;-1.666;2022-12-29T15:01:49;6.28;;;1.15;;
33987;SDS011;37428;53.580;-1.666;2022-12-29T15:04:58;10.05;;;1.77;;
33987;SDS011;37428;53.580;-1.666;2022-12-29T15:08:02;14.05;;;3.65;;
33987;SDS011;37428;53.580;-1.666;2022-12-29T15:11:06;20.15;;;6.10;;
33987;SDS011;37428;53.580;-1.666;2022-12-29T15:14:29;19.88;;;6.13;;
33987;SDS011;37428;53.580;-1.666;2022-12-29T15:17:34;25.63;;;7.20;;
33987;SDS011;37428;53.580;-1.666;2022-12-29T15:20:38;11.90;;;4.53;;
33987;SDS011;37428;53.580;-1.666;2022-12-29T15:23:43;11.90;;;4.03;;
33987;SDS011;37428;53.580;-1.666;2022-12-29T15:26:49;6.28;;;2.45;;
33987;SDS011;37428;53.580;-1.666;2022-12-29T15:29:58;22.30;;;9.52;;
33987;SDS011;37428;53.580;-1.666;2022-12-29T15:33:02;15.18;;;5.57;;
33987;SDS011;37428;53.580;-1.666;2022-12-29T15:36:19;13.65;;;4.10;;
33987;SDS011;37428;53.580;-1.666;2022-12-29T15:39:27;29.60;;;12.13;;
33987;SDS011;37428;53.580;-1.666;2022-12-29T15:42:39;28.13;;;9.50;;
33987;SDS011;37428;53.580;-1.666;2022-12-29T15:45:55;13.13;;;4.18;;
33987;SDS011;37428;53.580;-1.666;2022-12-29T15:48:58;14.25;;;3.70;;
33987;SDS011;37428;53.580;-1.666;2022-12-29T15:52:00;14.10;;;3.70;;
33987;SDS011;37428;53.580;-1.666;2022-12-29T15:55:10;20.73;;;6.75;;
33987;SDS011;37428;53.580;-1.666;2022-12-29T15:58:22;13.52;;;4.25;;
33987;SDS011;37428;53.580;-1.666;2022-12-29T16:01:28;13.52;;;3.75;;
33987;SDS011;37428;53.580;-1.666;2022-12-29T16:04:32;11.52;;;4.18;;
33987;SDS011;37428;53.580;-1.666;2022-12-29T16:07:35;9.18;;;4.18;;
33987;SDS011;37428;53.580;-1.666;2022-12-29T16:10:38;10.05;;;4.28;;
33987;SDS011;37428;53.580;-1.666;2022-12-29T16:13:42;11.00;;;2.40;;
33987;SDS011;37428;53.580;-1.666;2022-12-29T16:16:47;11.15;;;2.63;;
33987;SDS011;37428;53.580;-1.666;2022-12-29T16:19:52;10.05;;;2.40;;
33987;SDS011;37428;53.580;-1.666;2022-12-29T16:22:57;6.13;;;1.60;;
33987;SDS011;37428;53.580;-1.666;2022-12-29T16:26:02;11.65;;;4.93;;
33987;SDS011;37428;53.580;-1.666;2022-12-29T16:29:07;7.68;;;2.42;;
33987;SDS011;37428;53.580;-1.666;2022-12-29T16:32:24;17.75;;;6.95;;
33987;SDS011;37428;53.580;-1.666;2022-12-29T16:35:29;25.95;;;10.10;;
33987;SDS011;37428;53.580;-1.666;2022-12-29T16:38:39;18.37;;;7.57;;
33987;SDS011;37428;53.580;-1.666;2022-12-29T16:41:42;22.50;;;9.57;;
33987;SDS011;37428;53.580;-1.666;2022-12-29T16:44:44;18.48;;;9.23;;
33987;SDS011;37428;53.580;-1.666;2022-12-29T16:47:48;15.27;;;2.78;;
33987;SDS011;37428;53.580;-1.666;2022-12-29T16:51:15;20.88;;;8.93;;
33987;SDS011;37428;53.580;-1.666;2022-12-29T16:54:20;13.38;;;5.38;;
33987;SDS011;37428;53.580;-1.666;2022-12-29T16:57:25;6.35;;;2.55;;
33987;SDS011;37428;53.580;-1.666;2022-12-29T17:00:31;8.32;;;2.47;;
33987;SDS011;37428;53.580;-1.666;2022-12-29T17:03:39;6.63;;;2.38;;
33987;SDS011;37428;53.580;-1.666;2022-12-29T17:06:44;15.40;;;3.03;;
33987;SDS011;37428;53.580;-1.666;2022-12-29T17:09:46;13.15;;;2.50;;
33987;SDS011;37428;53.580;-1.666;2022-12-29T17:12:48;13.85;;;4.55;;
33987;SDS011;37428;53.580;-1.666;2022-12-29T17:15:50;10.23;;;3.00;;
33987;SDS011;37428;53.580;-1.666;2022-12-29T17:18:54;6.10;;;1.83;;
33987;SDS011;37428;53.580;-1.666;2022-12-29T17:21:56;7.90;;;2.80;;
33987;SDS011;37428;53.580;-1.666;2022-12-29T17:24:59;10.25;;;2.70;;
33987;SDS011;37428;53.580;-1.666;2022-12-29T17:28:03;12.80;;;2.28;;
33987;SDS011;37428;53.580;-1.666;2022-12-29T17:31:11;13.88;;;2.85;;
33987;SDS011;37428;53.580;-1.666;2022-12-29T17:34:21;8.55;;;2.33;;
33987;SDS011;37428;53.580;-1.666;2022-12-29T17:37:33;11.55;;;2.75;;
33987;SDS011;37428;53.580;-1.666;2022-12-29T17:40:37;9.40;;;1.63;;
33987;SDS011;37428;53.580;-1.666;2022-12-29T17:43:39;10.10;;;2.22;;
33987;SDS011;37428;53.580;-1.666;2022-12-29T17:49:44;8.05;;;1.63;;
33987;SDS011;37428;53.580;-1.666;2022-12-29T17:52:47;16.42;;;3.75;;
33987;SDS011;37428;53.580;-1.666;2022-12-29T17:55:53;6.78;;;2.25;;
33987;SDS011;37428;53.580;-1.666;2022-12-29T17:58:55;10.27;;;2.47;;
33987;SDS011;37428;53.580;-1.666;2022-12-29T18:01:57;9.18;;;2.42;;
33987;SDS011;37428;53.580;-1.666;2022-12-29T18:05:01;6.82;;;2.28;;
33987;SDS011;37428;53.580;-1.666;2022-12-29T18:08:03;9.90;;;2.53;;
33987;SDS011;37428;53.580;-1.666;2022-12-29T18:11:09;9.57;;;3.25;;
33987;SDS011;37428;53.580;-1.666;2022-12-29T18:14:22;9.10;;;2.50;;
33987;SDS011;37428;53.580;-1.666;2022-12-29T18:17:24;7.97;;;1.67;;
33987;SDS011;37428;53.580;-1.666;2022-12-29T18:20:28;5.07;;;1.52;;
33987;SDS011;37428;53.580;-1.666;2022-12-29T18:23:31;14.35;;;2.28;;
33987;SDS011;37428;53.580;-1.666;2022-12-29T18:26:35;8.75;;;1.67;;
33987;SDS011;37428;53.580;-1.666;2022-12-29T18:29:37;8.75;;;2.17;;
33987;SDS011;37428;53.580;-1.666;2022-12-29T18:32:39;9.90;;;1.73;;
33987;SDS011;37428;53.580;-1.666;2022-12-29T18:35:43;7.45;;;1.42;;
33987;SDS011;37428;53.580;-1.666;2022-12-29T18:38:49;5.63;;;1.63;;
33987;SDS011;37428;53.580;-1.666;2022-12-29T18:41:53;8.75;;;1.85;;
33987;SDS011;37428;53.580;-1.666;2022-12-29T18:44:55;6.55;;;1.70;;
33987;SDS011;37428;53.580;-1.666;2022-12-29T18:47:57;7.43;;;3.20;;
33987;SDS011;37428;53.580;-1.666;2022-12-29T18:51:01;10.55;;;5.20;;
33987;SDS011;37428;53.580;-1.666;2022-12-29T18:54:04;4.55;;;1.85;;
33987;SDS011;37428;53.580;-1.666;2022-12-29T18:57:06;7.53;;;2.10;;
33987;SDS011;37428;53.580;-1.666;2022-12-29T19:00:08;11.50;;;2.17;;
33987;SDS011;37428;53.580;-1.666;2022-12-29T19:03:12;7.22;;;2.17;;
33987;SDS011;37428;53.580;-1.666;2022-12-29T19:06:16;10.65;;;1.65;;
33987;SDS011;37428;53.580;-1.666;2022-12-29T19:09:20;12.90;;;3.90;;
33987;SDS011;37428;53.580;-1.666;2022-12-29T19:15:25;13.32;;;6.30;;
33987;SDS011;37428;53.580;-1.666;2022-12-29T19:18:28;14.13;;;7.00;;
33987;SDS011;37428;53.580;-1.666;2022-12-29T19:21:33;15.52;;;5.97;;
33987;SDS011;37428;53.580;-1.666;2022-12-29T19:24:35;7.88;;;4.05;;
33987;SDS011;37428;53.580;-1.666;2022-12-29T19:27:38;12.27;;;4.72;;
33987;SDS011;37428;53.580;-1.666;2022-12-29T19:30:40;9.45;;;4.68;;